Time;durP1;ratioP1;P1;durP2;ratioP2;P2;SDS_P1;SDS_P2;PMS_P1;PMS_P2;Temp;Humidity;BMP_temperature;BMP_pressure;BME280_temperature;BME280_humidity;BME280_pressure;Samples;Min_cycle;Max_cycle;Signal;HPM_P1;HPM_P2
2023/03/10 00:01:20;;;;;;;0.50;0.35;;;10.00;99.90;;;;;;4909770;29;20054;-87
2023/03/10 00:03:47;;;;;;;0.20;0.20;;;10.00;99.90;;;;;;4907881;29;20095;-87
2023/03/10 00:06:15;;;;;;;0.40;0.28;;;10.00;99.90;;;;;;4905127;29;20420;-86
2023/03/10 00:08:42;;;;;;;0.20;0.20;;;10.00;99.90;;;;;;4915550;29;20540;-87
2023/03/10 00:11:09;;;;;;;0.22;0.20;;;10.00;99.90;;;;;;4909501;29;20051;-86
2023/03/10 00:13:36;;;;;;;0.55;0.20;;;10.00;99.90;;;;;;4908707;29;20494;-86
2023/03/10 00:16:04;;;;;;;0.32;0.20;;;10.00;99.90;;;;;;4914531;29;20172;-86
2023/03/10 00:18:31;;;;;;;0.38;0.20;;;9.90;99.90;;;;;;4915976;29;20066;-87
2023/03/10 00:20:58;;;;;;;0.20;0.20;;;9.90;99.90;;;;;;4915081;29;20454;-85
2023/03/10 00:23:25;;;;;;;0.52;0.30;;;9.90;99.90;;;;;;4910445;29;20147;-86
2023/03/10 00:25:57;;;;;;;1.27;0.47;;;9.90;99.90;;;;;;4901458;29;20088;-86
2023/03/10 00:28:24;;;;;;;1.08;0.55;;;9.90;99.90;;;;;;4918323;29;20055;-87
2023/03/10 00:30:57;;;;;;;0.25;0.25;;;9.90;99.90;;;;;;4907509;29;20452;-87
2023/03/10 00:33:24;;;;;;;0.45;0.30;;;9.90;99.90;;;;;;4926258;29;20047;-87
2023/03/10 00:36:04;;;;;;;0.50;0.30;;;9.90;99.90;;;;;;4905903;29;20468;-86
2023/03/10 00:38:32;;;;;;;1.02;0.30;;;9.90;99.90;;;;;;4926552;29;20548;-86
2023/03/10 00:41:00;;;;;;;0.38;0.30;;;9.90;99.90;;;;;;4898214;29;20174;-87
2023/03/10 00:43:27;;;;;;;0.30;0.10;;;9.90;99.90;;;;;;4892488;29;20056;-86
2023/03/10 00:45:54;;;;;;;0.20;0.20;;;9.90;99.90;;;;;;4904806;29;20143;-87
2023/03/10 00:48:21;;;;;;;0.17;0.15;;;9.90;99.90;;;;;;4930773;29;20423;-85
2023/03/10 00:50:48;;;;;;;0.15;0.15;;;9.90;99.90;;;;;;4910226;29;20056;-85
2023/03/10 00:53:15;;;;;;;0.30;0.30;;;9.90;99.90;;;;;;4911764;29;20059;-86
2023/03/10 00:55:42;;;;;;;0.20;0.20;;;9.90;99.90;;;;;;4900494;29;20052;-85
2023/03/10 00:58:09;;;;;;;0.20;0.20;;;9.90;99.90;;;;;;4916143;29;20440;-85
2023/03/10 01:00:35;;;;;;;0.20;0.20;;;9.90;99.90;;;;;;4904619;29;20070;-86
2023/03/10 01:03:02;;;;;;;0.10;0.10;;;9.90;99.90;;;;;;4905510;29;20443;-86
2023/03/10 01:05:29;;;;;;;0.10;0.10;;;9.90;99.90;;;;;;4909301;29;20098;-86
2023/03/10 01:07:56;;;;;;;0.15;0.13;;;9.90;99.90;;;;;;4916590;29;20051;-87
2023/03/10 01:10:23;;;;;;;0.08;0.08;;;9.90;99.90;;;;;;4913479;29;20126;-85
2023/03/10 01:12:50;;;;;;;0.20;0.20;;;9.90;99.90;;;;;;4915174;29;20186;-86
2023/03/10 01:15:17;;;;;;;0.65;0.35;;;9.90;99.90;;;;;;4893246;29;20067;-85
2023/03/10 01:17:44;;;;;;;0.20;0.20;;;9.80;99.90;;;;;;4921835;29;20081;-87
2023/03/10 01:20:13;;;;;;;0.22;0.20;;;9.80;99.90;;;;;;4909446;29;20071;-86
2023/03/10 01:22:41;;;;;;;0.73;0.40;;;9.80;99.90;;;;;;4916217;29;20044;-86
2023/03/10 01:25:12;;;;;;;0.32;0.20;;;9.80;99.90;;;;;;4905875;29;20261;-86
2023/03/10 01:27:39;;;;;;;0.50;0.20;;;9.80;99.90;;;;;;4911965;29;20139;-87
2023/03/10 01:30:07;;;;;;;1.52;0.30;;;9.80;99.90;;;;;;4908939;29;20154;-86
2023/03/10 01:32:34;;;;;;;0.65;0.30;;;9.80;99.90;;;;;;4914297;29;20120;-86
2023/03/10 01:35:01;;;;;;;0.30;0.20;;;9.70;99.90;;;;;;4922150;29;20855;-87
2023/03/10 01:37:29;;;;;;;0.22;0.20;;;9.70;99.90;;;;;;4917251;29;20055;-86
2023/03/10 01:39:56;;;;;;;0.20;0.20;;;9.70;99.90;;;;;;4910277;29;20052;-86
2023/03/10 01:42:23;;;;;;;0.10;0.10;;;9.70;99.90;;;;;;4914306;29;20121;-86
2023/03/10 01:45:22;;;;;;;0.65;0.38;;;9.70;99.90;;;;;;4907670;29;20115;-86
2023/03/10 01:47:49;;;;;;;0.32;0.32;;;9.70;99.90;;;;;;4925321;29;20079;-87
2023/03/10 01:50:17;;;;;;;0.45;0.40;;;9.70;99.90;;;;;;4906245;29;20078;-86
2023/03/10 01:52:46;;;;;;;0.10;0.10;;;9.70;99.90;;;;;;4928981;29;20565;-87
2023/03/10 01:55:15;;;;;;;0.17;0.17;;;9.70;99.90;;;;;;4906431;29;20451;-85
2023/03/10 01:57:47;;;;;;;0.10;0.10;;;9.70;99.90;;;;;;4916983;29;20351;-86
2023/03/10 02:00:15;;;;;;;0.10;0.10;;;9.70;99.90;;;;;;4909172;29;20134;-86
2023/03/10 02:02:48;;;;;;;0.28;0.15;;;9.70;99.90;;;;;;4905442;29;20062;-86
2023/03/10 02:05:15;;;;;;;0.25;0.20;;;9.70;99.90;;;;;;4917507;29;20081;-87
2023/03/10 02:07:42;;;;;;;0.10;0.10;;;9.70;99.90;;;;;;4902960;29;20111;-88
2023/03/10 02:10:10;;;;;;;0.10;0.10;;;9.80;99.90;;;;;;4896916;29;20143;-87
2023/03/10 02:12:37;;;;;;;0.43;0.20;;;9.80;99.90;;;;;;4913469;29;20051;-87
2023/03/10 02:15:06;;;;;;;0.20;0.17;;;9.70;99.90;;;;;;4903750;29;20058;-88
2023/03/10 02:17:33;;;;;;;0.35;0.35;;;9.70;99.90;;;;;;4915690;29;20650;-88
2023/03/10 02:20:29;;;;;;;0.10;0.10;;;9.80;99.90;;;;;;4913495;29;20062;-87
2023/03/10 02:22:56;;;;;;;0.30;0.20;;;9.70;99.90;;;;;;4914762;29;20537;-87
2023/03/10 02:25:41;;;;;;;0.13;0.13;;;9.80;99.90;;;;;;4903676;29;20210;-88
2023/03/10 02:28:08;;;;;;;0.13;0.10;;;9.80;99.90;;;;;;4947549;29;20079;-87
2023/03/10 02:30:40;;;;;;;0.20;0.20;;;9.70;99.90;;;;;;4910104;29;20446;-87
2023/03/10 02:33:12;;;;;;;0.10;0.10;;;9.70;99.90;;;;;;4554823;29;10001142;-87
2023/03/10 02:35:39;;;;;;;0.70;0.20;;;9.70;99.90;;;;;;4897507;29;20074;-87
2023/03/10 02:38:06;;;;;;;0.10;0.10;;;9.70;99.90;;;;;;4897654;29;20060;-87
2023/03/10 02:40:39;;;;;;;0.30;0.20;;;9.70;99.90;;;;;;4907997;29;20060;-87
2023/03/10 02:43:13;;;;;;;0.20;0.20;;;9.70;99.90;;;;;;4915525;29;20062;-86
2023/03/10 02:45:41;;;;;;;0.10;0.10;;;9.60;99.90;;;;;;4916240;29;20308;-87
2023/03/10 02:48:09;;;;;;;0.10;0.10;;;9.60;99.90;;;;;;4916452;29;20052;-87
2023/03/10 02:50:37;;;;;;;0.35;0.20;;;9.60;99.90;;;;;;4908390;29;20130;-87
2023/03/10 02:53:16;;;;;;;0.47;0.20;;;9.60;99.90;;;;;;4914137;29;20050;-86
2023/03/10 02:55:43;;;;;;;0.10;0.10;;;9.60;99.90;;;;;;4919172;29;20106;-87
2023/03/10 02:58:09;;;;;;;0.10;0.10;;;9.50;99.90;;;;;;4919602;29;20090;-87
2023/03/10 03:00:37;;;;;;;0.17;0.10;;;9.50;99.90;;;;;;4908862;29;20154;-87
2023/03/10 03:03:05;;;;;;;0.10;0.10;;;9.50;99.90;;;;;;4911643;29;20143;-88
2023/03/10 03:05:32;;;;;;;0.10;0.10;;;9.50;99.90;;;;;;4918316;29;20122;-87
2023/03/10 03:08:00;;;;;;;0.10;0.10;;;9.50;99.90;;;;;;4918770;29;20158;-85
2023/03/10 03:10:27;;;;;;;0.20;0.20;;;9.50;99.90;;;;;;4910157;29;20056;-86
2023/03/10 03:12:55;;;;;;;0.15;0.15;;;9.60;99.90;;;;;;4913723;29;20056;-86
2023/03/10 03:15:22;;;;;;;0.10;0.10;;;9.60;99.90;;;;;;4914784;29;20060;-86
2023/03/10 03:17:49;;;;;;;0.10;0.10;;;9.50;99.90;;;;;;4930645;29;20460;-86
2023/03/10 03:20:16;;;;;;;0.20;0.20;;;9.60;99.90;;;;;;4916353;29;20055;-85
2023/03/10 03:22:44;;;;;;;0.73;0.73;;;9.50;99.90;;;;;;4914368;29;20055;-86
2023/03/10 03:25:12;;;;;;;0.10;0.10;;;9.50;99.90;;;;;;4917706;29;20089;-86
2023/03/10 03:27:39;;;;;;;0.10;0.10;;;9.50;99.90;;;;;;4918403;29;20063;-86
2023/03/10 03:30:10;;;;;;;0.10;0.10;;;9.60;99.90;;;;;;4912220;29;20126;-86
2023/03/10 03:32:37;;;;;;;0.10;0.10;;;9.60;99.90;;;;;;4902134;29;20087;-87
2023/03/10 03:35:08;;;;;;;0.20;0.20;;;9.60;99.90;;;;;;4914984;29;20111;-87
2023/03/10 03:37:35;;;;;;;0.20;0.20;;;9.60;99.90;;;;;;4914939;29;20118;-86
2023/03/10 03:40:11;;;;;;;0.10;0.10;;;9.70;99.90;;;;;;4912481;29;20047;-86
2023/03/10 03:42:39;;;;;;;0.13;0.13;;;9.70;99.90;;;;;;4900536;29;20599;-86
2023/03/10 03:45:07;;;;;;;0.40;0.40;;;9.70;99.90;;;;;;4907369;29;20123;-86
2023/03/10 03:47:34;;;;;;;0.40;0.35;;;9.80;99.90;;;;;;4911465;29;20089;-87
2023/03/10 03:50:02;;;;;;;0.10;0.10;;;9.70;99.90;;;;;;4912312;29;20154;-86
2023/03/10 03:52:28;;;;;;;0.30;0.30;;;9.70;99.90;;;;;;4909584;29;20055;-85
2023/03/10 03:54:55;;;;;;;0.22;0.22;;;9.70;99.90;;;;;;4914103;29;20056;-87
2023/03/10 03:57:22;;;;;;;0.40;0.30;;;9.80;99.90;;;;;;4899644;29;20051;-86
2023/03/10 03:59:49;;;;;;;0.20;0.20;;;9.80;99.90;;;;;;4899224;29;20111;-86
2023/03/10 04:02:16;;;;;;;0.10;0.10;;;9.80;99.90;;;;;;4899441;29;20102;-86
2023/03/10 04:04:43;;;;;;;0.45;0.30;;;9.80;99.90;;;;;;4912936;29;20384;-85
2023/03/10 04:07:10;;;;;;;0.20;0.20;;;9.90;99.90;;;;;;4918053;29;20531;-86
2023/03/10 04:09:41;;;;;;;0.30;0.30;;;9.80;99.90;;;;;;4916598;29;20061;-86
2023/03/10 04:12:08;;;;;;;1.10;0.93;;;9.80;99.90;;;;;;4899457;29;20378;-87
2023/03/10 04:14:35;;;;;;;0.20;0.20;;;9.80;99.90;;;;;;4899091;29;20116;-86
2023/03/10 04:17:03;;;;;;;0.52;0.52;;;9.80;99.90;;;;;;4899507;29;20048;-86
2023/03/10 04:19:30;;;;;;;0.88;0.50;;;9.80;99.90;;;;;;4898994;29;20052;-87
2023/03/10 04:21:57;;;;;;;0.85;0.55;;;9.70;99.90;;;;;;4898977;29;20086;-86
2023/03/10 04:24:24;;;;;;;0.60;0.55;;;9.80;99.90;;;;;;4899412;29;20059;-87
2023/03/10 04:26:51;;;;;;;1.40;0.82;;;9.70;99.90;;;;;;4899331;29;20055;-87
2023/03/10 04:29:18;;;;;;;0.70;0.63;;;9.70;99.90;;;;;;4900821;29;20074;-86
2023/03/10 04:31:45;;;;;;;1.33;0.70;;;9.80;99.90;;;;;;4900636;29;20055;-87
2023/03/10 04:34:30;;;;;;;1.25;0.75;;;9.70;99.90;;;;;;4904454;29;20057;-87
2023/03/10 04:36:57;;;;;;;1.88;0.90;;;9.80;99.90;;;;;;4911477;29;20111;-87
2023/03/10 04:39:24;;;;;;;2.42;1.05;;;9.80;99.90;;;;;;4918232;29;20153;-87
2023/03/10 04:41:50;;;;;;;2.38;1.15;;;9.70;99.90;;;;;;4900053;29;20056;-87
2023/03/10 04:44:17;;;;;;;3.15;1.40;;;9.70;99.90;;;;;;4909931;29;20573;-87
2023/03/10 04:46:56;;;;;;;1.98;1.15;;;9.70;99.90;;;;;;4921668;29;20059;-87
2023/03/10 04:49:23;;;;;;;2.33;1.08;;;9.70;99.90;;;;;;4918171;29;20055;-86
2023/03/10 04:51:50;;;;;;;1.92;1.23;;;9.70;99.90;;;;;;4916243;29;20145;-87
2023/03/10 04:54:17;;;;;;;1.70;1.33;;;9.70;99.90;;;;;;4914496;29;20082;-86
2023/03/10 04:56:44;;;;;;;2.35;1.20;;;9.60;99.90;;;;;;4914217;29;20083;-84
2023/03/10 04:59:12;;;;;;;1.10;0.90;;;9.60;99.90;;;;;;4917163;29;20122;-86
2023/03/10 05:01:39;;;;;;;2.30;1.10;;;9.60;99.90;;;;;;4916656;29;20059;-86
2023/03/10 05:04:06;;;;;;;1.88;1.38;;;9.60;99.90;;;;;;4898914;29;20058;-87
2023/03/10 05:06:33;;;;;;;6.57;4.18;;;9.60;99.90;;;;;;4908851;29;20067;-87
2023/03/10 05:09:02;;;;;;;7.22;5.60;;;9.40;99.90;;;;;;4899284;29;20051;-86
2023/03/10 05:11:30;;;;;;;7.50;5.78;;;9.10;99.90;;;;;;4937341;29;20143;-87
2023/03/10 05:13:57;;;;;;;7.95;7.15;;;8.90;99.90;;;;;;4900155;29;20082;-86
2023/03/10 05:16:24;;;;;;;7.38;6.65;;;8.60;99.90;;;;;;4900642;29;20047;-86
2023/03/10 05:18:51;;;;;;;7.43;6.38;;;8.50;99.90;;;;;;4585721;29;10000331;-86
2023/03/10 05:21:20;;;;;;;7.75;6.85;;;8.40;99.90;;;;;;4883892;29;20769;-84
2023/03/10 05:23:48;;;;;;;7.00;6.30;;;8.20;99.90;;;;;;4908929;29;20071;-88
2023/03/10 05:26:15;;;;;;;8.13;7.32;;;8.10;99.90;;;;;;4899791;29;20060;-86
2023/03/10 05:28:42;;;;;;;7.93;6.55;;;7.90;99.90;;;;;;4903766;29;20056;-86
2023/03/10 05:31:14;;;;;;;7.28;6.40;;;7.80;99.90;;;;;;4904888;29;20738;-86
2023/03/10 05:33:41;;;;;;;6.93;6.22;;;7.70;99.90;;;;;;4917811;29;20056;-86
2023/03/10 05:36:10;;;;;;;6.03;5.43;;;7.60;99.90;;;;;;4906192;29;20052;-86
2023/03/10 05:38:37;;;;;;;5.32;4.82;;;7.50;99.90;;;;;;4932968;29;20095;-86
2023/03/10 05:41:08;;;;;;;5.38;4.88;;;7.50;99.90;;;;;;4928075;29;20048;-87
2023/03/10 05:43:35;;;;;;;4.75;4.28;;;7.40;99.90;;;;;;4898371;29;20043;-87
2023/03/10 05:46:02;;;;;;;6.35;4.82;;;7.40;99.90;;;;;;4898621;29;20048;-86
2023/03/10 05:48:29;;;;;;;4.88;4.38;;;7.40;99.90;;;;;;4898887;29;20083;-88
2023/03/10 05:51:00;;;;;;;4.75;4.10;;;7.40;99.90;;;;;;4913971;29;20087;-84
2023/03/10 05:53:28;;;;;;;5.05;4.18;;;7.20;99.90;;;;;;4914444;29;20107;-85
2023/03/10 05:55:55;;;;;;;4.40;3.80;;;7.20;99.90;;;;;;4898521;29;20122;-82
2023/03/10 05:58:22;;;;;;;5.05;4.38;;;7.10;99.90;;;;;;4929641;29;20048;-83
2023/03/10 06:00:49;;;;;;;4.18;3.78;;;7.00;99.90;;;;;;4912386;29;20119;-82
2023/03/10 06:03:16;;;;;;;3.53;3.22;;;7.00;99.90;;;;;;4896435;29;20122;-85
2023/03/10 06:05:44;;;;;;;4.47;3.70;;;6.90;99.90;;;;;;4900109;29;20166;-83
2023/03/10 06:08:11;;;;;;;4.30;3.20;;;6.90;99.90;;;;;;4914367;29;20144;-83
2023/03/10 06:10:38;;;;;;;5.20;3.15;;;6.80;99.90;;;;;;4904440;29;20058;-83
2023/03/10 06:13:04;;;;;;;3.85;3.30;;;6.70;99.90;;;;;;4901872;29;20084;-84
2023/03/10 06:15:32;;;;;;;4.60;3.63;;;6.60;99.90;;;;;;4904533;29;20099;-82
2023/03/10 06:17:58;;;;;;;4.93;3.70;;;6.50;99.90;;;;;;4897637;29;20083;-83
2023/03/10 06:20:25;;;;;;;4.57;3.72;;;6.50;99.90;;;;;;4888804;29;20087;-84
2023/03/10 06:22:52;;;;;;;3.97;3.53;;;6.40;99.90;;;;;;4894913;29;20047;-83
2023/03/10 06:25:19;;;;;;;3.88;3.53;;;6.40;99.90;;;;;;4892920;29;20055;-83
2023/03/10 06:27:46;;;;;;;3.47;3.05;;;6.40;99.90;;;;;;4892842;29;20055;-85
2023/03/10 06:30:14;;;;;;;3.30;3.00;;;6.30;99.90;;;;;;4891533;29;20142;-86
2023/03/10 06:32:41;;;;;;;2.97;2.67;;;6.30;99.90;;;;;;4894873;29;20079;-85
2023/03/10 06:35:13;;;;;;;2.67;2.33;;;6.20;99.90;;;;;;4908873;29;20066;-83
2023/03/10 06:37:41;;;;;;;2.80;2.25;;;6.20;99.90;;;;;;4885788;29;20071;-83
2023/03/10 06:40:11;;;;;;;2.50;2.10;;;6.10;99.90;;;;;;4889193;29;20459;-82
2023/03/10 06:42:39;;;;;;;2.35;1.83;;;6.10;99.90;;;;;;4886947;29;20126;-80
2023/03/10 06:45:07;;;;;;;1.80;1.63;;;6.20;99.90;;;;;;4904148;29;20106;-79
2023/03/10 06:47:34;;;;;;;2.17;1.88;;;6.10;99.90;;;;;;4904840;29;20083;-80
2023/03/10 06:50:01;;;;;;;2.20;2.00;;;6.00;99.90;;;;;;4885382;29;20139;-80
2023/03/10 06:52:28;;;;;;;2.63;2.15;;;5.90;99.90;;;;;;4917940;29;20087;-81
2023/03/10 06:54:55;;;;;;;2.40;2.03;;;5.80;99.90;;;;;;4916277;29;20082;-81
2023/03/10 06:57:22;;;;;;;2.03;1.70;;;5.80;99.90;;;;;;4905003;29;20299;-81
2023/03/10 06:59:50;;;;;;;1.98;1.75;;;5.80;99.90;;;;;;4901518;29;20230;-81
2023/03/10 07:02:18;;;;;;;1.80;1.60;;;5.80;99.90;;;;;;4915303;29;20143;-81
2023/03/10 07:04:45;;;;;;;1.60;1.27;;;5.80;99.90;;;;;;4898664;29;20067;-81
2023/03/10 07:07:13;;;;;;;1.55;1.30;;;5.70;99.90;;;;;;4903986;29;20055;-80
2023/03/10 07:09:40;;;;;;;2.47;1.50;;;5.70;99.90;;;;;;4910861;29;20591;-80
2023/03/10 07:12:07;;;;;;;0.90;0.90;;;5.70;99.90;;;;;;4887173;29;20143;-80
2023/03/10 07:14:34;;;;;;;2.22;1.45;;;5.70;99.90;;;;;;4914424;29;20747;-77
2023/03/10 07:17:02;;;;;;;1.23;1.05;;;5.70;99.90;;;;;;4910166;29;20086;-78
2023/03/10 07:19:29;;;;;;;1.85;1.05;;;5.60;99.90;;;;;;4918094;29;20504;-77
2023/03/10 07:21:55;;;;;;;1.20;1.10;;;5.60;99.90;;;;;;4917941;29;20052;-77
2023/03/10 07:24:22;;;;;;;1.33;0.90;;;5.60;99.90;;;;;;4901385;29;20610;-77
2023/03/10 07:26:49;;;;;;;1.17;0.90;;;5.60;99.90;;;;;;4897302;29;20047;-78
2023/03/10 07:29:16;;;;;;;1.35;1.05;;;5.60;99.90;;;;;;4886676;29;20153;-78
2023/03/10 07:31:44;;;;;;;1.23;0.85;;;5.60;99.90;;;;;;4900595;29;20054;-78
2023/03/10 07:34:11;;;;;;;0.90;0.90;;;5.60;99.90;;;;;;4885641;29;20055;-78
2023/03/10 07:36:38;;;;;;;1.02;0.82;;;5.50;99.90;;;;;;4880428;29;20127;-79
2023/03/10 07:39:05;;;;;;;1.05;0.90;;;5.50;99.90;;;;;;4914836;29;21918;-79
2023/03/10 07:41:32;;;;;;;0.77;0.60;;;5.50;99.90;;;;;;4919865;29;20138;-79
2023/03/10 07:43:58;;;;;;;1.02;0.80;;;5.40;99.90;;;;;;4921886;29;20475;-79
2023/03/10 07:46:25;;;;;;;1.27;0.95;;;5.40;99.90;;;;;;4904901;29;20057;-80
2023/03/10 07:48:53;;;;;;;1.02;0.93;;;5.40;99.90;;;;;;4919248;29;20071;-79
2023/03/10 07:51:20;;;;;;;0.63;0.63;;;5.40;99.90;;;;;;4904379;29;20051;-79
2023/03/10 07:53:47;;;;;;;0.98;0.70;;;5.30;99.90;;;;;;4922361;29;20484;-79
2023/03/10 07:56:14;;;;;;;1.13;1.00;;;5.30;99.90;;;;;;4919909;29;20058;-79
2023/03/10 07:58:41;;;;;;;1.80;1.08;;;5.40;99.90;;;;;;4875326;29;20467;-79
2023/03/10 08:01:08;;;;;;;0.77;0.60;;;5.30;99.90;;;;;;4922929;29;20052;-78
2023/03/10 08:03:35;;;;;;;1.33;0.70;;;5.20;99.90;;;;;;4905209;29;20147;-78
2023/03/10 08:06:04;;;;;;;0.52;0.52;;;5.10;99.90;;;;;;4920532;29;20111;-79
2023/03/10 08:08:31;;;;;;;0.75;0.52;;;5.10;99.90;;;;;;4905312;29;20534;-80
2023/03/10 08:11:02;;;;;;;1.30;0.70;;;5.20;99.90;;;;;;4921207;29;20059;-78
2023/03/10 08:13:29;;;;;;;0.55;0.50;;;5.10;99.90;;;;;;4899904;29;20052;-79
2023/03/10 08:15:58;;;;;;;0.45;0.45;;;5.00;99.90;;;;;;4909837;29;20317;-79
2023/03/10 08:18:25;;;;;;;0.95;0.70;;;4.90;99.90;;;;;;4921489;29;20487;-78
2023/03/10 08:20:52;;;;;;;1.75;1.30;;;4.90;99.90;;;;;;4920862;29;20359;-79
2023/03/10 08:23:19;;;;;;;0.57;0.55;;;4.70;99.90;;;;;;4920506;29;20103;-78
2023/03/10 08:25:46;;;;;;;1.38;0.82;;;4.60;99.90;;;;;;4904819;29;20410;-79
2023/03/10 08:28:12;;;;;;;1.10;0.90;;;4.60;99.90;;;;;;4890462;29;20202;-78
2023/03/10 08:30:39;;;;;;;1.20;0.93;;;4.50;99.90;;;;;;4890485;29;20146;-78
2023/03/10 08:33:27;;;;;;;1.10;0.70;;;4.30;99.90;;;;;;4905741;29;20166;-78
2023/03/10 08:36:05;;;;;;;1.00;0.70;;;4.20;99.90;;;;;;4920299;29;20143;-79
2023/03/10 08:38:32;;;;;;;0.52;0.52;;;4.00;99.90;;;;;;4901088;29;20439;-79
2023/03/10 08:41:11;;;;;;;0.75;0.63;;;4.00;99.90;;;;;;4921584;29;20472;-78
2023/03/10 08:43:38;;;;;;;0.88;0.70;;;3.90;99.90;;;;;;4896469;29;20441;-79
2023/03/10 08:46:05;;;;;;;1.02;0.70;;;3.90;99.90;;;;;;4924320;29;20083;-79
2023/03/10 08:48:35;;;;;;;1.63;0.73;;;3.90;99.90;;;;;;4906735;29;20435;-79
2023/03/10 08:51:02;;;;;;;0.85;0.77;;;3.80;99.90;;;;;;4921922;29;20289;-79
2023/03/10 08:53:29;;;;;;;0.70;0.52;;;3.80;99.90;;;;;;4918833;29;20134;-78
2023/03/10 08:55:56;;;;;;;1.35;1.00;;;3.90;99.90;;;;;;4924510;29;20087;-78
2023/03/10 08:58:23;;;;;;;1.40;0.95;;;3.80;99.90;;;;;;4898570;29;20080;-78
2023/03/10 09:00:51;;;;;;;2.10;1.00;;;3.70;99.90;;;;;;4913916;29;20048;-77
2023/03/10 09:03:18;;;;;;;1.23;1.10;;;3.60;99.90;;;;;;4908703;29;20056;-78
2023/03/10 09:05:45;;;;;;;2.03;1.40;;;3.50;99.90;;;;;;4924504;29;20170;-78
2023/03/10 09:08:11;;;;;;;1.38;1.00;;;3.40;99.90;;;;;;4924507;29;20047;-78
2023/03/10 09:10:39;;;;;;;2.30;1.40;;;3.40;99.90;;;;;;4900799;29;20059;-78
2023/03/10 09:13:06;;;;;;;2.30;1.60;;;3.50;99.90;;;;;;4924403;29;20058;-78
2023/03/10 09:15:40;;;;;;;1.73;1.10;;;3.40;99.90;;;;;;4910129;29;20499;-78
2023/03/10 09:18:11;;;;;;;1.73;0.75;;;3.30;99.90;;;;;;4898213;29;20056;-77
2023/03/10 09:20:38;;;;;;;1.98;1.00;;;3.10;99.90;;;;;;4896672;29;20095;-78
2023/03/10 09:23:05;;;;;;;1.45;0.90;;;3.10;99.90;;;;;;4891862;29;20128;-86
2023/03/10 09:25:32;;;;;;;2.28;1.00;;;3.20;99.90;;;;;;4886360;29;20070;-78
2023/03/10 09:27:59;;;;;;;1.90;0.82;;;3.00;99.90;;;;;;4889677;29;20052;-77
2023/03/10 09:30:26;;;;;;;3.05;1.15;;;3.00;99.90;;;;;;4921770;29;20107;-77
2023/03/10 09:32:54;;;;;;;1.63;0.70;;;3.00;99.90;;;;;;4919658;29;20499;-77
2023/03/10 09:35:21;;;;;;;1.48;0.60;;;3.00;99.90;;;;;;4923428;29;20486;-77
2023/03/10 09:37:48;;;;;;;1.65;1.15;;;3.00;99.90;;;;;;4920977;29;20063;-78
2023/03/10 09:40:19;;;;;;;1.65;0.85;;;3.00;99.90;;;;;;4922500;29;20168;-77
2023/03/10 09:43:05;;;;;;;0.95;0.65;;;3.00;99.90;;;;;;4923568;29;20514;-78
2023/03/10 09:45:42;;;;;;;0.95;0.80;;;3.00;99.90;;;;;;4905791;29;20051;-78
2023/03/10 09:48:29;;;;;;;2.63;1.00;;;3.00;99.90;;;;;;4921870;29;20498;-78
2023/03/10 09:50:58;;;;;;;1.33;1.23;;;3.00;99.90;;;;;;4901910;29;20079;-79
2023/03/10 09:53:37;;;;;;;1.48;0.63;;;3.00;99.90;;;;;;4903747;29;20410;-79
2023/03/10 09:56:13;;;;;;;3.53;0.90;;;3.00;99.90;;;;;;4906289;29;20044;-79
2023/03/10 09:58:48;;;;;;;0.52;0.50;;;3.00;99.90;;;;;;4924385;29;20052;-79
2023/03/10 10:01:17;;;;;;;1.48;0.88;;;3.10;99.90;;;;;;4924168;29;20056;-79
2023/03/10 10:03:55;;;;;;;2.03;1.10;;;3.00;99.90;;;;;;4908349;29;20078;-78
2023/03/10 10:06:28;;;;;;;0.93;0.68;;;3.00;99.90;;;;;;4922789;29;20074;-79
2023/03/10 10:08:56;;;;;;;0.95;0.55;;;3.10;99.90;;;;;;4925510;29;20131;-79
2023/03/10 10:11:32;;;;;;;1.38;0.80;;;3.20;99.90;;;;;;4923641;29;20059;-79
2023/03/10 10:14:10;;;;;;;1.30;0.73;;;3.10;99.90;;;;;;4924371;29;20048;-79
2023/03/10 10:16:57;;;;;;;1.13;0.50;;;3.20;99.90;;;;;;4923336;29;20055;-80
2023/03/10 10:19:25;;;;;;;0.93;0.60;;;3.10;99.90;;;;;;4908453;29;20107;-79
2023/03/10 10:21:58;;;;;;;1.08;0.70;;;3.10;99.90;;;;;;4906792;29;20052;-80
2023/03/10 10:24:25;;;;;;;1.50;0.52;;;3.20;99.90;;;;;;4925299;29;20056;-80
2023/03/10 10:26:52;;;;;;;1.17;0.57;;;3.20;99.90;;;;;;4892460;29;20459;-80
2023/03/10 10:29:24;;;;;;;1.00;0.60;;;3.20;99.90;;;;;;4908300;29;20138;-81
2023/03/10 10:32:11;;;;;;;0.63;0.40;;;3.30;99.90;;;;;;4907930;29;20143;-80
2023/03/10 10:34:42;;;;;;;1.65;0.52;;;3.50;99.90;;;;;;4906597;29;20083;-80
2023/03/10 10:37:32;;;;;;;1.45;0.60;;;3.40;99.90;;;;;;4922908;29;20063;-80
2023/03/10 10:40:24;;;;;;;0.30;0.30;;;3.50;99.90;;;;;;4908491;29;20059;-81
2023/03/10 10:42:53;;;;;;;0.88;0.57;;;3.60;99.90;;;;;;4907679;29;20052;-80
2023/03/10 10:45:23;;;;;;;0.50;0.40;;;3.60;99.90;;;;;;4907684;29;20047;-81
2023/03/10 10:47:50;;;;;;;1.13;0.47;;;3.70;99.90;;;;;;4923526;29;20054;-80
2023/03/10 10:50:24;;;;;;;0.40;0.20;;;3.90;99.90;;;;;;4906853;29;20476;-81
2023/03/10 10:53:15;;;;;;;1.13;0.43;;;4.00;99.90;;;;;;4922733;29;20167;-80
2023/03/10 10:55:43;;;;;;;0.50;0.45;;;4.10;99.90;;;;;;4907464;29;20051;-81
2023/03/10 10:59:03;;;;;;;0.70;0.68;;;4.20;99.90;;;;;;4891976;29;20147;-81
2023/03/10 11:01:50;;;;;;;2.88;0.60;;;4.30;99.90;;;;;;4906553;29;20055;-82
2023/03/10 11:04:17;;;;;;;1.55;0.52;;;4.40;99.90;;;;;;4907214;29;20063;-82
2023/03/10 11:06:44;;;;;;;0.63;0.60;;;4.60;99.90;;;;;;4905794;29;20329;-82
2023/03/10 11:09:19;;;;;;;1.20;0.70;;;4.70;99.90;;;;;;4906876;29;20150;-82
2023/03/10 11:11:55;;;;;;;0.85;0.70;;;4.70;99.90;;;;;;4914689;29;20059;-82
2023/03/10 11:14:34;;;;;;;2.05;0.68;;;4.70;99.90;;;;;;4907353;29;20296;-82
2023/03/10 11:17:19;;;;;;;0.70;0.70;;;4.80;99.90;;;;;;4924263;29;20055;-83
2023/03/10 11:20:22;;;;;;;2.72;0.70;;;4.70;99.90;;;;;;4890905;29;20052;-82
2023/03/10 11:22:58;;;;;;;2.90;1.20;;;4.70;99.90;;;;;;4901579;29;20124;-82
2023/03/10 11:25:26;;;;;;;1.70;0.88;;;4.60;99.90;;;;;;4907017;29;20082;-82
2023/03/10 11:28:21;;;;;;;2.10;1.10;;;4.60;99.90;;;;;;4923910;29;20099;-83
2023/03/10 11:31:03;;;;;;;0.85;0.57;;;4.50;99.90;;;;;;4891172;29;20099;-83
2023/03/10 11:33:34;;;;;;;1.70;1.10;;;4.50;99.90;;;;;;4922664;29;20407;-83
2023/03/10 11:36:29;;;;;;;2.92;0.90;;;4.50;99.90;;;;;;4921888;29;20150;-82
2023/03/10 11:39:05;;;;;;;1.17;0.60;;;4.40;99.90;;;;;;4904271;29;20138;-83
2023/03/10 11:41:32;;;;;;;0.88;0.60;;;4.40;99.90;;;;;;4897798;29;20762;-83
2023/03/10 11:44:05;;;;;;;0.60;0.40;;;4.60;99.90;;;;;;4906673;29;20411;-83
2023/03/10 11:46:38;;;;;;;1.50;0.75;;;4.50;99.90;;;;;;4922115;29;20055;-82
2023/03/10 11:49:10;;;;;;;1.02;0.60;;;4.40;99.90;;;;;;4922135;29;20048;-83
2023/03/10 11:51:41;;;;;;;1.20;0.63;;;4.50;99.90;;;;;;4905205;29;20482;-83
2023/03/10 11:54:19;;;;;;;0.98;0.60;;;4.40;99.90;;;;;;4921599;29;20507;-83
2023/03/10 11:56:48;;;;;;;0.75;0.55;;;4.40;99.90;;;;;;4889324;29;20107;-82
2023/03/10 11:59:26;;;;;;;0.85;0.50;;;4.40;99.90;;;;;;4890053;29;20087;-83
2023/03/10 12:02:22;;;;;;;1.77;0.80;;;4.40;99.90;;;;;;4903839;29;20087;-82
2023/03/10 12:04:53;;;;;;;0.82;0.63;;;4.40;99.90;;;;;;4913240;29;20114;-82
2023/03/10 12:07:23;;;;;;;2.83;1.05;;;4.40;99.90;;;;;;4899955;29;20436;-83
2023/03/10 12:09:55;;;;;;;1.70;1.27;;;4.40;99.90;;;;;;4889289;29;20055;-83
2023/03/10 12:12:25;;;;;;;3.17;1.35;;;4.40;99.90;;;;;;4905581;29;20264;-82
2023/03/10 12:14:53;;;;;;;1.98;1.60;;;4.30;99.90;;;;;;4895963;29;20051;-82
2023/03/10 12:17:19;;;;;;;2.90;1.50;;;4.30;99.90;;;;;;4926954;29;20507;-83
2023/03/10 12:20:11;;;;;;;2.60;1.48;;;4.20;99.90;;;;;;4894626;29;20134;-82
2023/03/10 12:23:08;;;;;;;3.45;1.70;;;4.30;99.90;;;;;;4917942;29;20144;-83
2023/03/10 12:25:37;;;;;;;2.33;1.30;;;4.20;99.90;;;;;;4898474;29;20100;-80
2023/03/10 12:28:10;;;;;;;1.83;1.50;;;4.20;99.90;;;;;;4918615;29;20051;-83
2023/03/10 12:31:00;;;;;;;2.38;1.20;;;4.30;99.90;;;;;;4929429;29;20052;-82
2023/03/10 12:33:33;;;;;;;1.65;1.30;;;4.30;99.90;;;;;;4904274;29;20056;-81
2023/03/10 12:36:04;;;;;;;2.05;1.52;;;4.50;99.90;;;;;;4907179;29;20039;-81
2023/03/10 12:38:36;;;;;;;1.10;1.00;;;4.70;99.90;;;;;;4906701;29;20059;-82
2023/03/10 12:41:03;;;;;;;1.00;0.90;;;4.90;99.90;;;;;;4890409;29;20490;-82
2023/03/10 12:43:45;;;;;;;1.17;0.98;;;5.20;99.90;;;;;;4904511;29;20720;-82
2023/03/10 12:46:38;;;;;;;1.48;0.80;;;5.30;99.90;;;;;;4921451;29;20099;-82
2023/03/10 12:49:33;;;;;;;1.67;0.80;;;5.10;99.90;;;;;;4892190;29;20348;-82
2023/03/10 12:52:06;;;;;;;2.40;0.90;;;5.10;99.90;;;;;;4923330;29;20055;-83
2023/03/10 12:55:15;;;;;;;1.42;0.73;;;5.10;99.90;;;;;;4923333;29;20059;-81
2023/03/10 12:57:51;;;;;;;0.50;0.50;;;5.20;99.90;;;;;;4885891;29;20064;-81
2023/03/10 13:00:27;;;;;;;1.05;0.88;;;5.20;99.90;;;;;;4901807;29;20143;-82
2023/03/10 13:03:08;;;;;;;1.67;1.00;;;5.10;99.90;;;;;;4915312;29;20091;-82
2023/03/10 13:05:40;;;;;;;3.65;0.90;;;5.00;99.90;;;;;;4899666;29;20054;-82
2023/03/10 13:08:23;;;;;;;0.95;0.70;;;5.00;99.90;;;;;;4887843;29;20462;-83
2023/03/10 13:10:54;;;;;;;0.98;0.70;;;4.90;99.90;;;;;;4890976;29;20059;-82
2023/03/10 13:13:24;;;;;;;1.52;0.73;;;4.90;99.90;;;;;;4893527;29;20187;-83
2023/03/10 13:15:58;;;;;;;1.10;0.80;;;4.90;99.90;;;;;;4887569;29;20055;-83